Terminal Aerodrome Forecast
Issued by NWS

Home | Current Version | Previous Version | Text Only | Print | Product List | Glossary On
Versions: 1 2 3 4 5 6 7 8 9 10 11 12 13 14
000
FTUS43 KMPX 022300
TAFRWF
TAF
KRWF 022333Z 0300/0324 22010KT P6SM FEW120 SCT250
     FM030300 19007KT P6SM SCT060 SCT120
     FM030800 18009KT P6SM VCSH SCT050 BKN100
     FM031200 17010KT P6SM -SHRA BKN045 OVC090 PROB30 0312/0316 4SM
      TSRA OVC040CB
     FM031700 18014KT P6SM SCT040=

USA.gov is the U.S. government's official web portal to all federal, state and local government web resources and services.